createdAt,value
2018-11-28T00:00:31.583Z,0.30
2018-11-28T00:03:36.182Z,0.20
2018-11-28T00:06:41.699Z,0.20
2018-11-28T00:09:46.052Z,0.30
2018-11-28T00:12:50.517Z,0.20
2018-11-28T00:15:55.596Z,0.10
2018-11-28T00:19:00.885Z,0.10
2018-11-28T00:22:07.380Z,0.10
2018-11-28T00:25:14.952Z,0.10
2018-11-28T00:28:24.877Z,0.00
2018-11-28T00:31:31.464Z,0.00
2018-11-28T00:34:43.865Z,0.10
2018-11-28T00:37:48.567Z,0.20
2018-11-28T00:40:53.503Z,0.30
2018-11-28T00:43:58.230Z,0.30
2018-11-28T00:47:02.937Z,0.10
2018-11-28T00:50:12.216Z,0.00
2018-11-28T00:53:16.676Z,-0.10
2018-11-28T00:56:22.402Z,-0.20
2018-11-28T00:59:27.794Z,-0.30
2018-11-28T01:02:32.321Z,-0.40
2018-11-28T01:05:41.234Z,-0.30
2018-11-28T01:08:46.094Z,-0.20
2018-11-28T01:11:50.834Z,-0.20
2018-11-28T01:14:56.251Z,-0.20
2018-11-28T01:18:01.161Z,-0.20
2018-11-28T01:21:06.769Z,-0.10
2018-11-28T01:24:12.517Z,-0.20
2018-11-28T01:27:18.105Z,-0.20
2018-11-28T01:30:24.734Z,-0.10
2018-11-28T01:33:29.474Z,-0.10
2018-11-28T01:36:34.999Z,-0.10
2018-11-28T01:39:41.022Z,0.00
2018-11-28T01:42:47.020Z,0.00
2018-11-28T01:45:53.135Z,-0.10
2018-11-28T01:48:59.209Z,-0.20
2018-11-28T01:52:04.005Z,-0.20
2018-11-28T01:55:11.893Z,-0.20
2018-11-28T01:58:18.089Z,-0.20
2018-11-28T02:01:22.808Z,-0.10
2018-11-28T02:04:27.241Z,-0.10
2018-11-28T02:07:33.766Z,-0.20
2018-11-28T02:10:38.713Z,-0.10
2018-11-28T02:13:43.890Z,-0.10
2018-11-28T02:16:49.158Z,0.00
2018-11-28T02:19:54.032Z,0.00
2018-11-28T02:22:58.554Z,0.00
2018-11-28T02:26:03.878Z,0.10
2018-11-28T02:29:08.217Z,0.10
2018-11-28T02:32:13.159Z,0.20
2018-11-28T02:35:18.642Z,0.10
2018-11-28T02:38:23.516Z,0.20
2018-11-28T02:41:28.036Z,0.20
2018-11-28T02:44:32.627Z,0.10
2018-11-28T02:47:39.557Z,0.10
2018-11-28T02:50:44.321Z,0.00
2018-11-28T02:53:48.810Z,0.10
2018-11-28T02:56:53.639Z,0.10
2018-11-28T02:59:57.994Z,0.20
2018-11-28T03:03:02.270Z,0.20
2018-11-28T03:06:07.250Z,0.20
2018-11-28T03:09:11.677Z,0.10
2018-11-28T03:12:16.191Z,0.20
2018-11-28T03:15:54.220Z,0.00
2018-11-28T03:18:58.857Z,0.10
2018-11-28T03:22:03.904Z,0.20
2018-11-28T03:25:09.888Z,0.20
2018-11-28T03:28:14.263Z,0.20
2018-11-28T03:31:18.834Z,0.40
2018-11-28T03:34:23.267Z,0.50
2018-11-28T03:37:27.834Z,0.60
2018-11-28T03:40:32.782Z,0.50
2018-11-28T03:43:37.509Z,0.40
2018-11-28T03:46:41.777Z,0.40
2018-11-28T03:49:46.051Z,0.40
2018-11-28T03:52:50.320Z,0.60
2018-11-28T03:55:54.674Z,0.60
2018-11-28T03:58:58.979Z,0.60
2018-11-28T04:02:03.384Z,0.60
2018-11-28T04:05:08.938Z,0.60
2018-11-28T04:08:13.252Z,0.50
2018-11-28T04:11:17.628Z,0.40
2018-11-28T04:14:21.917Z,0.40
2018-11-28T04:17:26.224Z,0.30
2018-11-28T04:20:30.598Z,0.50
2018-11-28T04:23:35.900Z,0.40
2018-11-28T04:26:41.060Z,0.40
2018-11-28T04:29:45.584Z,0.40
2018-11-28T04:32:50.696Z,0.30
2018-11-28T04:35:55.250Z,0.30
2018-11-28T04:38:59.556Z,0.20
2018-11-28T04:42:04.018Z,0.50
2018-11-28T04:45:14.687Z,0.50
2018-11-28T04:48:19.041Z,0.40
2018-11-28T04:51:23.420Z,0.30
2018-11-28T04:54:27.777Z,0.50
2018-11-28T04:57:32.258Z,0.50
2018-11-28T05:00:36.509Z,0.50
2018-11-28T05:03:40.778Z,0.40
2018-11-28T05:07:49.386Z,0.40
2018-11-28T05:10:53.742Z,0.50
2018-11-28T05:13:58.096Z,0.60
2018-11-28T05:17:02.523Z,0.70
2018-11-28T05:20:10.403Z,0.70
2018-11-28T05:23:14.813Z,0.80
2018-11-28T05:26:19.665Z,0.90
2018-11-28T05:29:24.079Z,0.90
2018-11-28T05:32:28.731Z,0.80
2018-11-28T05:35:36.597Z,0.80
2018-11-28T05:38:41.014Z,0.70
2018-11-28T05:41:45.363Z,0.80
2018-11-28T05:44:49.996Z,0.90
2018-11-28T05:47:54.852Z,0.90
2018-11-28T05:50:59.123Z,1.10
2018-11-28T05:54:03.357Z,1.00
2018-11-28T05:57:07.623Z,1.10
2018-11-28T06:00:23.847Z,1.20
2018-11-28T06:03:28.225Z,1.10
2018-11-28T06:06:32.505Z,1.20
2018-11-28T06:09:36.732Z,1.00
2018-11-28T06:12:40.960Z,1.00
2018-11-28T06:15:45.145Z,1.10
2018-11-28T06:18:49.369Z,1.20
2018-11-28T06:21:53.682Z,1.20
2018-11-28T06:24:57.909Z,1.20
2018-11-28T06:28:02.111Z,1.10
2018-11-28T06:31:06.545Z,1.00
2018-11-28T06:34:10.764Z,0.90
2018-11-28T06:37:15.040Z,1.00
2018-11-28T06:40:23.850Z,1.10
2018-11-28T06:43:23.514Z,1.30
2018-11-28T06:46:27.604Z,1.20
2018-11-28T06:49:31.750Z,1.20
2018-11-28T06:52:35.879Z,1.20
2018-11-28T06:55:39.947Z,1.20
2018-11-28T06:58:44.047Z,1.10
2018-11-28T07:01:48.128Z,1.20
2018-11-28T07:04:52.337Z,1.20
2018-11-28T07:07:56.394Z,1.10
2018-11-28T07:11:00.562Z,1.00
2018-11-28T07:14:04.790Z,0.80
2018-11-28T07:17:09.820Z,0.90
2018-11-28T07:20:15.039Z,0.90
2018-11-28T07:23:19.103Z,0.90
2018-11-28T07:26:23.164Z,0.90
2018-11-28T07:29:27.306Z,0.90
2018-11-28T07:32:31.364Z,0.90
2018-11-28T07:35:35.516Z,1.00
2018-11-28T07:38:39.657Z,0.80
2018-11-28T07:41:43.752Z,0.90
2018-11-28T07:44:47.853Z,1.00
2018-11-28T07:47:51.914Z,1.00
2018-11-28T07:50:56.022Z,1.00
2018-11-28T07:54:00.150Z,1.10
2018-11-28T07:57:04.183Z,1.20
2018-11-28T08:00:13.127Z,1.30
2018-11-28T08:03:17.149Z,1.30
2018-11-28T08:06:21.218Z,1.20
2018-11-28T08:09:25.293Z,1.10
2018-11-28T08:12:29.485Z,1.10
2018-11-28T08:15:33.549Z,1.10
2018-11-28T08:18:37.644Z,1.10
2018-11-28T08:21:41.741Z,1.30
2018-11-28T08:24:45.877Z,1.30
2018-11-28T08:27:50.933Z,1.50
2018-11-28T08:30:55.156Z,1.60
2018-11-28T08:33:59.346Z,1.70
2018-11-28T08:37:03.431Z,1.70
2018-11-28T08:40:11.363Z,1.80
2018-11-28T08:43:15.477Z,1.80
2018-11-28T08:46:19.590Z,1.90
2018-11-28T08:49:24.087Z,2.00
2018-11-28T08:52:28.135Z,2.00
2018-11-28T08:55:32.232Z,2.10
2018-11-28T08:58:36.343Z,2.20
2018-11-28T09:01:40.453Z,2.20
2018-11-28T09:04:44.498Z,2.30
2018-11-28T09:07:48.560Z,2.30
2018-11-28T09:10:52.740Z,2.30
2018-11-28T09:13:57.765Z,2.30
2018-11-28T09:17:01.995Z,2.20
2018-11-28T09:20:08.726Z,2.20
2018-11-28T09:23:12.803Z,2.10
2018-11-28T09:26:18.929Z,2.10
2018-11-28T09:29:23.070Z,2.30
2018-11-28T09:32:27.126Z,2.40
2018-11-28T09:35:31.502Z,2.30
2018-11-28T09:38:35.607Z,2.50
2018-11-28T09:41:39.703Z,2.60
2018-11-28T09:44:43.793Z,2.50
2018-11-28T09:47:47.906Z,2.70
2018-11-28T09:50:51.994Z,2.60
2018-11-28T09:53:56.215Z,2.50
2018-11-28T09:57:00.398Z,2.30
2018-11-28T10:00:06.707Z,2.40
2018-11-28T10:03:11.818Z,2.70
2018-11-28T10:06:15.998Z,3.00
2018-11-28T10:09:20.195Z,3.50
2018-11-28T10:12:24.366Z,3.60
2018-11-28T10:15:35.234Z,3.70
2018-11-28T10:18:33.527Z,3.70
2018-11-28T10:21:38.593Z,3.70
2018-11-28T10:24:42.778Z,3.40
2018-11-28T10:27:49.154Z,3.40
2018-11-28T10:30:53.303Z,3.50
2018-11-28T10:33:57.613Z,3.60
2018-11-28T10:37:01.823Z,3.80
2018-11-28T10:40:11.209Z,4.30
2018-11-28T10:43:15.421Z,4.50
2018-11-28T10:46:19.856Z,4.60
2018-11-28T10:49:24.071Z,4.50
2018-11-28T10:52:28.349Z,4.90
2018-11-28T10:55:32.677Z,5.10
2018-11-28T10:58:37.202Z,4.70
2018-11-28T11:01:46.472Z,4.70
2018-11-28T11:04:56.149Z,5.30
2018-11-28T11:08:05.744Z,5.50
2018-11-28T11:11:15.339Z,5.90
2018-11-28T11:14:25.056Z,6.20
2018-11-28T11:17:29.284Z,6.60
2018-11-28T11:20:33.520Z,6.90
2018-11-28T11:23:37.765Z,6.60
2018-11-28T11:26:41.898Z,6.50
2018-11-28T11:29:46.101Z,6.60
2018-11-28T11:32:50.840Z,6.60
2018-11-28T11:35:54.987Z,6.40
2018-11-28T11:38:59.138Z,6.30
2018-11-28T11:42:03.347Z,5.90
2018-11-28T11:45:10.031Z,5.80
2018-11-28T11:48:14.233Z,5.60
2018-11-28T11:51:18.373Z,5.50
2018-11-28T11:54:23.009Z,5.60
2018-11-28T11:57:27.134Z,5.60
2018-11-28T12:00:31.305Z,5.30
2018-11-28T12:03:35.465Z,5.30
2018-11-28T12:06:39.613Z,5.40
2018-11-28T12:09:43.843Z,5.30
2018-11-28T12:12:51.679Z,5.30
2018-11-28T12:15:52.183Z,5.30
2018-11-28T12:18:56.666Z,5.20
2018-11-28T12:22:00.834Z,5.20
2018-11-28T12:25:06.001Z,5.20
2018-11-28T12:28:10.224Z,5.30
2018-11-28T12:31:14.416Z,5.30
2018-11-28T12:34:18.589Z,5.40
2018-11-28T12:37:22.794Z,5.50
2018-11-28T12:40:27.013Z,5.50
2018-11-28T12:43:31.561Z,5.30
2018-11-28T12:46:36.187Z,5.00
2018-11-28T12:49:40.371Z,4.90
2018-11-28T12:52:44.624Z,4.80
2018-11-28T12:55:48.835Z,4.70
2018-11-28T12:58:53.098Z,4.70
2018-11-28T13:01:57.343Z,4.60
2018-11-28T13:05:01.639Z,4.50
2018-11-28T13:08:06.519Z,4.50
2018-11-28T13:11:10.817Z,4.40
2018-11-28T13:14:15.026Z,4.50
2018-11-28T13:17:19.273Z,4.70
2018-11-28T13:20:23.784Z,4.70
2018-11-28T13:23:28.130Z,4.80
2018-11-28T13:26:32.365Z,4.90
2018-11-28T13:29:36.922Z,4.90
2018-11-28T13:32:41.962Z,4.90
2018-11-28T13:35:46.199Z,4.90
2018-11-28T13:38:50.443Z,4.80
2018-11-28T13:41:54.667Z,4.80
2018-11-28T13:44:58.813Z,4.80
2018-11-28T13:48:03.053Z,4.90
2018-11-28T13:51:07.220Z,4.80
2018-11-28T13:54:21.150Z,4.80
2018-11-28T13:57:16.489Z,4.70
2018-11-28T14:00:21.501Z,4.60
2018-11-28T14:03:29.370Z,4.60
2018-11-28T14:06:33.592Z,4.60
2018-11-28T14:09:38.046Z,4.60
2018-11-28T14:12:42.471Z,4.70
2018-11-28T14:15:48.814Z,4.60
2018-11-28T14:18:53.000Z,4.60
2018-11-28T14:21:57.235Z,4.60
2018-11-28T14:25:01.403Z,4.50
2018-11-28T14:28:06.031Z,4.40
2018-11-28T14:31:10.221Z,4.30
2018-11-28T14:34:14.473Z,4.20
2018-11-28T14:37:19.222Z,4.10
2018-11-28T14:40:24.955Z,4.00
2018-11-28T14:43:29.369Z,3.80
2018-11-28T14:46:33.689Z,3.70
2018-11-28T14:49:37.939Z,3.60
2018-11-28T14:52:42.713Z,3.50
2018-11-28T14:55:47.543Z,3.50
2018-11-28T14:58:52.990Z,3.40
2018-11-28T15:01:57.650Z,3.40
2018-11-28T15:05:01.825Z,3.50
2018-11-28T15:08:08.887Z,3.50
2018-11-28T15:11:14.089Z,3.40
2018-11-28T15:14:18.236Z,3.30
2018-11-28T15:17:23.163Z,3.30
2018-11-28T15:20:27.405Z,3.30
2018-11-28T15:23:31.784Z,3.30
2018-11-28T15:26:36.446Z,3.30
2018-11-28T15:29:40.631Z,3.20
2018-11-28T15:32:44.797Z,3.20
2018-11-28T15:35:48.983Z,3.10
2018-11-28T15:38:53.203Z,3.00
2018-11-28T15:41:57.634Z,2.90
2018-11-28T15:45:01.787Z,2.90
2018-11-28T15:48:06.174Z,2.90
2018-11-28T15:51:10.417Z,2.90
2018-11-28T15:54:14.590Z,2.90
2018-11-28T15:57:18.766Z,2.70
2018-11-28T16:00:25.289Z,2.60
2018-11-28T16:03:29.395Z,2.50
2018-11-28T16:06:33.717Z,2.50
2018-11-28T16:09:43.107Z,2.50
2018-11-28T16:12:47.721Z,2.40
2018-11-28T16:15:55.113Z,2.30
2018-11-28T16:18:59.219Z,2.20
2018-11-28T16:22:03.968Z,2.10
2018-11-28T16:25:10.016Z,2.00
2018-11-28T16:28:14.128Z,1.90
2018-11-28T16:31:18.240Z,2.00
2018-11-28T16:34:22.333Z,2.00
2018-11-28T16:37:26.402Z,2.00
2018-11-28T16:40:30.596Z,1.90
2018-11-28T16:43:34.687Z,1.90
2018-11-28T16:46:45.424Z,1.70
2018-11-28T16:49:49.491Z,1.70
2018-11-28T16:52:53.609Z,1.80
2018-11-28T16:55:57.693Z,1.90
2018-11-28T16:59:01.758Z,1.90
2018-11-28T17:02:06.186Z,2.00
2018-11-28T17:05:12.229Z,2.00
2018-11-28T17:08:16.402Z,2.10
2018-11-28T17:11:21.524Z,2.10
2018-11-28T17:14:25.688Z,2.20
2018-11-28T17:17:29.887Z,2.30
2018-11-28T17:20:34.072Z,2.50
2018-11-28T17:23:38.308Z,2.60
2018-11-28T17:26:42.483Z,2.70
2018-11-28T17:29:46.922Z,2.80
2018-11-28T17:32:51.140Z,2.80
2018-11-28T17:35:55.364Z,2.80
2018-11-28T17:38:59.536Z,2.90
2018-11-28T17:42:03.723Z,2.80
2018-11-28T17:45:10.917Z,2.80
2018-11-28T17:48:18.103Z,2.90
2018-11-28T17:51:22.315Z,2.90
2018-11-28T17:54:26.447Z,2.90
2018-11-28T17:57:30.660Z,2.90
2018-11-28T18:00:35.073Z,2.90
2018-11-28T18:03:39.268Z,2.90
2018-11-28T18:06:43.470Z,2.90
2018-11-28T18:09:47.683Z,3.00
2018-11-28T18:13:03.176Z,3.00
2018-11-28T18:16:07.784Z,3.00
2018-11-28T18:19:11.999Z,3.00
2018-11-28T18:22:16.168Z,2.90
2018-11-28T18:25:20.778Z,2.80
2018-11-28T18:28:25.819Z,2.80
2018-11-28T18:31:30.113Z,2.80
2018-11-28T18:34:34.554Z,2.80
2018-11-28T18:37:38.801Z,2.80
2018-11-28T18:40:43.016Z,2.70
2018-11-28T18:43:47.231Z,2.70
2018-11-28T18:46:51.417Z,2.70
2018-11-28T18:49:55.554Z,2.80
2018-11-28T18:53:00.422Z,2.90
2018-11-28T18:56:04.668Z,3.10
2018-11-28T18:59:08.929Z,3.20
2018-11-28T19:02:13.096Z,3.20
2018-11-28T19:05:17.304Z,3.10
2018-11-28T19:08:21.455Z,2.90
2018-11-28T19:11:25.707Z,2.90
2018-11-28T19:14:36.381Z,2.90
2018-11-28T19:17:40.754Z,2.80
2018-11-28T19:20:44.961Z,2.70
2018-11-28T19:23:49.108Z,2.80
2018-11-28T19:26:53.314Z,2.90
2018-11-28T19:29:57.527Z,3.00
2018-11-28T19:33:01.796Z,3.00
2018-11-28T19:36:06.497Z,2.90
2018-11-28T19:39:10.739Z,2.90
2018-11-28T19:42:14.814Z,3.00
2018-11-28T19:45:18.877Z,2.90
2018-11-28T19:48:23.002Z,2.90
2018-11-28T19:51:27.090Z,2.90
2018-11-28T19:54:31.201Z,3.00
2018-11-28T19:57:35.376Z,3.10
2018-11-28T20:00:42.903Z,3.00
2018-11-28T20:03:47.010Z,3.00
2018-11-28T20:06:51.098Z,3.00
2018-11-28T20:09:58.046Z,2.90
2018-11-28T20:13:02.181Z,2.80
2018-11-28T20:16:06.870Z,2.80
2018-11-28T20:19:11.066Z,2.70
2018-11-28T20:22:15.213Z,2.60
2018-11-28T20:25:20.792Z,2.60
2018-11-28T20:28:24.891Z,2.60
2018-11-28T20:31:29.022Z,2.50
2018-11-28T20:34:33.102Z,2.50
2018-11-28T20:37:37.149Z,2.60
2018-11-28T20:40:41.363Z,2.50
2018-11-28T20:43:45.842Z,2.30
2018-11-28T20:46:49.904Z,2.30
2018-11-28T20:49:54.047Z,2.30
2018-11-28T20:52:59.951Z,2.20
2018-11-28T20:56:04.157Z,2.30
2018-11-28T20:59:08.878Z,2.20
2018-11-28T21:02:12.325Z,2.10
2018-11-28T21:05:16.387Z,2.00
2018-11-28T21:08:21.083Z,2.00
2018-11-28T21:11:25.162Z,2.00
2018-11-28T21:14:29.198Z,2.10
2018-11-28T21:17:33.307Z,2.00
2018-11-28T21:20:38.188Z,2.00
2018-11-28T21:23:42.275Z,1.90
2018-11-28T21:26:46.534Z,1.90
2018-11-28T21:29:50.639Z,1.80
2018-11-28T21:32:55.909Z,1.80
2018-11-28T21:35:59.962Z,1.80
2018-11-28T21:39:06.266Z,1.80
2018-11-28T21:42:10.434Z,1.80
2018-11-28T21:45:16.003Z,1.80
2018-11-28T21:48:20.136Z,1.80
2018-11-28T21:51:24.198Z,1.80
2018-11-28T21:54:28.622Z,1.80
2018-11-28T21:57:32.807Z,1.80
2018-11-28T22:00:37.467Z,1.80
2018-11-28T22:03:41.568Z,1.80
2018-11-28T22:06:45.648Z,1.80
2018-11-28T22:09:49.723Z,1.90
2018-11-28T22:12:55.018Z,2.00
2018-11-28T22:15:59.106Z,2.10
2018-11-28T22:19:03.200Z,2.10
2018-11-28T22:22:07.293Z,1.90
2018-11-28T22:25:16.732Z,2.00
2018-11-28T22:28:20.786Z,2.00
2018-11-28T22:31:24.809Z,2.00
2018-11-28T22:34:29.002Z,2.00
2018-11-28T22:37:33.067Z,2.00
2018-11-28T22:40:37.223Z,2.00
2018-11-28T22:43:41.329Z,2.00
2018-11-28T22:46:45.381Z,2.00
2018-11-28T22:49:49.449Z,2.10
2018-11-28T22:52:53.504Z,2.10
2018-11-28T22:55:57.668Z,2.20
2018-11-28T22:59:01.772Z,2.20
2018-11-28T23:02:42.200Z,2.00
2018-11-28T23:05:50.665Z,2.00
2018-11-28T23:08:55.118Z,2.00
2018-11-28T23:12:00.346Z,2.10
2018-11-28T23:15:04.909Z,2.10
2018-11-28T23:18:10.425Z,2.20
2018-11-28T23:21:14.698Z,2.10
2018-11-28T23:24:18.927Z,2.10
2018-11-28T23:27:23.137Z,2.10
2018-11-28T23:30:27.403Z,2.00
2018-11-28T23:33:31.535Z,2.10
2018-11-28T23:36:35.749Z,2.20
2018-11-28T23:39:39.916Z,2.30
2018-11-28T23:42:44.449Z,2.40
2018-11-28T23:45:48.667Z,2.40
2018-11-28T23:48:53.147Z,2.40
2018-11-28T23:51:57.454Z,2.40
2018-11-28T23:55:01.629Z,2.30
2018-11-28T23:58:06.027Z,2.30
